sensor_id;sensor_type;location;lat;lon;timestamp;P1;durP1;ratioP1;P2;durP2;ratioP2
51288;SDS011;37372;52.294;5.152;2023-07-31T00:01:27;8.63;;;2.50;;
51288;SDS011;37372;52.294;5.152;2023-07-31T00:03:57;7.80;;;3.08;;
51288;SDS011;37372;52.294;5.152;2023-07-31T00:06:28;12.90;;;2.97;;
51288;SDS011;37372;52.294;5.152;2023-07-31T00:09:15;11.95;;;4.28;;
51288;SDS011;37372;52.294;5.152;2023-07-31T00:11:46;12.05;;;3.60;;
51288;SDS011;37372;52.294;5.152;2023-07-31T00:14:11;12.75;;;3.38;;
51288;SDS011;37372;52.294;5.152;2023-07-31T00:16:36;11.45;;;3.20;;
51288;SDS011;37372;52.294;5.152;2023-07-31T00:19:02;15.23;;;3.13;;
51288;SDS011;37372;52.294;5.152;2023-07-31T00:21:27;14.93;;;4.30;;
51288;SDS011;37372;52.294;5.152;2023-07-31T00:23:56;14.93;;;3.88;;
51288;SDS011;37372;52.294;5.152;2023-07-31T00:26:43;9.70;;;3.80;;
51288;SDS011;37372;52.294;5.152;2023-07-31T00:29:12;14.70;;;3.65;;
51288;SDS011;37372;52.294;5.152;2023-07-31T00:31:46;15.98;;;3.75;;
51288;SDS011;37372;52.294;5.152;2023-07-31T00:34:15;12.02;;;3.95;;
51288;SDS011;37372;52.294;5.152;2023-07-31T00:36:41;10.57;;;3.50;;
51288;SDS011;37372;52.294;5.152;2023-07-31T00:39:13;7.45;;;2.80;;
51288;SDS011;37372;52.294;5.152;2023-07-31T00:41:40;12.35;;;4.20;;
51288;SDS011;37372;52.294;5.152;2023-07-31T00:44:15;10.18;;;3.85;;
51288;SDS011;37372;52.294;5.152;2023-07-31T00:46:40;13.00;;;3.70;;
51288;SDS011;37372;52.294;5.152;2023-07-31T00:49:09;34.72;;;4.72;;
51288;SDS011;37372;52.294;5.152;2023-07-31T00:51:36;11.35;;;3.63;;
51288;SDS011;37372;52.294;5.152;2023-07-31T00:54:01;9.45;;;3.50;;
51288;SDS011;37372;52.294;5.152;2023-07-31T00:56:48;7.05;;;2.72;;
51288;SDS011;37372;52.294;5.152;2023-07-31T00:59:17;8.68;;;3.40;;
51288;SDS011;37372;52.294;5.152;2023-07-31T01:01:46;9.88;;;3.65;;
51288;SDS011;37372;52.294;5.152;2023-07-31T01:04:15;15.60;;;4.10;;
51288;SDS011;37372;52.294;5.152;2023-07-31T01:06:52;22.35;;;5.70;;
51288;SDS011;37372;52.294;5.152;2023-07-31T01:12:20;13.43;;;5.07;;
51288;SDS011;37372;52.294;5.152;2023-07-31T01:15:07;19.77;;;5.07;;
51288;SDS011;37372;52.294;5.152;2023-07-31T01:17:42;20.05;;;5.43;;
51288;SDS011;37372;52.294;5.152;2023-07-31T01:20:23;16.70;;;4.72;;
51288;SDS011;37372;52.294;5.152;2023-07-31T01:28:50;17.83;;;5.22;;
51288;SDS011;37372;52.294;5.152;2023-07-31T01:31:36;17.55;;;5.50;;
51288;SDS011;37372;52.294;5.152;2023-07-31T01:34:08;17.20;;;5.55;;
51288;SDS011;37372;52.294;5.152;2023-07-31T01:36:44;24.63;;;7.50;;
51288;SDS011;37372;52.294;5.152;2023-07-31T01:39:20;22.85;;;7.65;;
51288;SDS011;37372;52.294;5.152;2023-07-31T01:41:46;28.48;;;6.47;;
51288;SDS011;37372;52.294;5.152;2023-07-31T01:44:20;19.60;;;5.95;;
51288;SDS011;37372;52.294;5.152;2023-07-31T01:46:46;22.95;;;7.10;;
51288;SDS011;37372;52.294;5.152;2023-07-31T01:49:12;21.75;;;6.45;;
51288;SDS011;37372;52.294;5.152;2023-07-31T01:51:44;23.10;;;7.10;;
51288;SDS011;37372;52.294;5.152;2023-07-31T01:54:12;24.45;;;6.68;;
51288;SDS011;37372;52.294;5.152;2023-07-31T01:56:50;27.00;;;7.80;;
51288;SDS011;37372;52.294;5.152;2023-07-31T01:59:16;33.65;;;7.82;;
51288;SDS011;37372;52.294;5.152;2023-07-31T02:01:45;26.52;;;7.05;;
51288;SDS011;37372;52.294;5.152;2023-07-31T02:06:57;34.08;;;8.07;;
51288;SDS011;37372;52.294;5.152;2023-07-31T02:09:28;23.58;;;7.88;;
51288;SDS011;37372;52.294;5.152;2023-07-31T02:11:57;36.03;;;9.77;;
51288;SDS011;37372;52.294;5.152;2023-07-31T02:14:25;32.25;;;10.77;;
51288;SDS011;37372;52.294;5.152;2023-07-31T02:16:51;36.53;;;9.52;;
51288;SDS011;37372;52.294;5.152;2023-07-31T02:19:22;41.67;;;10.45;;
51288;SDS011;37372;52.294;5.152;2023-07-31T02:21:59;44.15;;;9.82;;
51288;SDS011;37372;52.294;5.152;2023-07-31T02:24:30;33.03;;;10.57;;
51288;SDS011;37372;52.294;5.152;2023-07-31T02:26:56;51.60;;;11.82;;
51288;SDS011;37372;52.294;5.152;2023-07-31T02:29:46;41.70;;;10.27;;
51288;SDS011;37372;52.294;5.152;2023-07-31T02:32:10;47.33;;;10.77;;
51288;SDS011;37372;52.294;5.152;2023-07-31T02:34:36;42.08;;;11.80;;
51288;SDS011;37372;52.294;5.152;2023-07-31T02:37:01;38.42;;;10.05;;
51288;SDS011;37372;52.294;5.152;2023-07-31T02:39:31;36.55;;;9.85;;
51288;SDS011;37372;52.294;5.152;2023-07-31T02:41:57;46.92;;;11.20;;
51288;SDS011;37372;52.294;5.152;2023-07-31T02:44:22;44.10;;;10.52;;
51288;SDS011;37372;52.294;5.152;2023-07-31T02:46:48;46.80;;;11.40;;
51288;SDS011;37372;52.294;5.152;2023-07-31T02:49:14;36.95;;;10.15;;
51288;SDS011;37372;52.294;5.152;2023-07-31T02:52:12;47.05;;;10.57;;
51288;SDS011;37372;52.294;5.152;2023-07-31T02:54:37;44.80;;;11.13;;
51288;SDS011;37372;52.294;5.152;2023-07-31T02:57:03;37.83;;;11.85;;
51288;SDS011;37372;52.294;5.152;2023-07-31T02:59:32;39.35;;;11.45;;
51288;SDS011;37372;52.294;5.152;2023-07-31T03:01:59;45.28;;;11.82;;
51288;SDS011;37372;52.294;5.152;2023-07-31T03:04:26;48.08;;;11.07;;
51288;SDS011;37372;52.294;5.152;2023-07-31T03:07:03;38.45;;;10.02;;
51288;SDS011;37372;52.294;5.152;2023-07-31T03:09:39;42.40;;;10.95;;
51288;SDS011;37372;52.294;5.152;2023-07-31T03:12:05;30.30;;;9.48;;
51288;SDS011;37372;52.294;5.152;2023-07-31T03:14:42;40.10;;;10.45;;
51288;SDS011;37372;52.294;5.152;2023-07-31T03:17:07;39.10;;;11.90;;
51288;SDS011;37372;52.294;5.152;2023-07-31T03:19:37;39.92;;;11.43;;
51288;SDS011;37372;52.294;5.152;2023-07-31T03:22:09;38.88;;;10.32;;
51288;SDS011;37372;52.294;5.152;2023-07-31T03:24:42;39.40;;;10.27;;
51288;SDS011;37372;52.294;5.152;2023-07-31T03:27:07;47.20;;;11.07;;
51288;SDS011;37372;52.294;5.152;2023-07-31T03:29:33;35.00;;;10.85;;
51288;SDS011;37372;52.294;5.152;2023-07-31T03:31:58;44.22;;;11.50;;
51288;SDS011;37372;52.294;5.152;2023-07-31T03:34:45;38.65;;;11.95;;
51288;SDS011;37372;52.294;5.152;2023-07-31T03:37:49;45.00;;;11.65;;
51288;SDS011;37372;52.294;5.152;2023-07-31T03:40:08;44.70;;;11.60;;
51288;SDS011;37372;52.294;5.152;2023-07-31T03:42:34;41.35;;;10.43;;
51288;SDS011;37372;52.294;5.152;2023-07-31T03:45:00;41.00;;;11.13;;
51288;SDS011;37372;52.294;5.152;2023-07-31T03:47:31;45.55;;;12.80;;
51288;SDS011;37372;52.294;5.152;2023-07-31T03:49:56;43.22;;;10.60;;
51288;SDS011;37372;52.294;5.152;2023-07-31T03:52:22;34.38;;;10.00;;
51288;SDS011;37372;52.294;5.152;2023-07-31T03:54:47;49.08;;;11.98;;
51288;SDS011;37372;52.294;5.152;2023-07-31T03:57:13;49.95;;;12.20;;
51288;SDS011;37372;52.294;5.152;2023-07-31T03:59:54;43.95;;;10.25;;
51288;SDS011;37372;52.294;5.152;2023-07-31T04:02:20;56.78;;;11.68;;
51288;SDS011;37372;52.294;5.152;2023-07-31T04:07:41;34.08;;;9.57;;
51288;SDS011;37372;52.294;5.152;2023-07-31T04:10:07;45.90;;;12.65;;
51288;SDS011;37372;52.294;5.152;2023-07-31T04:12:41;41.60;;;10.45;;
51288;SDS011;37372;52.294;5.152;2023-07-31T04:15:07;49.88;;;13.35;;
51288;SDS011;37372;52.294;5.152;2023-07-31T04:17:59;38.25;;;11.35;;
51288;SDS011;37372;52.294;5.152;2023-07-31T04:20:24;40.35;;;11.55;;
51288;SDS011;37372;52.294;5.152;2023-07-31T04:22:50;36.85;;;9.57;;
51288;SDS011;37372;52.294;5.152;2023-07-31T04:25:15;38.63;;;10.43;;
51288;SDS011;37372;52.294;5.152;2023-07-31T04:27:41;47.38;;;11.32;;
51288;SDS011;37372;52.294;5.152;2023-07-31T04:30:07;36.22;;;9.18;;
51288;SDS011;37372;52.294;5.152;2023-07-31T04:32:35;42.38;;;11.15;;
51288;SDS011;37372;52.294;5.152;2023-07-31T04:35:03;44.75;;;10.55;;
51288;SDS011;37372;52.294;5.152;2023-07-31T04:37:37;40.08;;;12.68;;
51288;SDS011;37372;52.294;5.152;2023-07-31T04:40:04;44.28;;;10.85;;
51288;SDS011;37372;52.294;5.152;2023-07-31T04:42:33;35.90;;;9.00;;
51288;SDS011;37372;52.294;5.152;2023-07-31T04:45:02;38.35;;;10.20;;
51288;SDS011;37372;52.294;5.152;2023-07-31T04:47:28;30.83;;;9.30;;
51288;SDS011;37372;52.294;5.152;2023-07-31T04:49:53;39.53;;;11.68;;
51288;SDS011;37372;52.294;5.152;2023-07-31T04:52:22;33.30;;;9.25;;
51288;SDS011;37372;52.294;5.152;2023-07-31T04:54:49;35.47;;;9.25;;
51288;SDS011;37372;52.294;5.152;2023-07-31T04:57:20;38.00;;;10.30;;
51288;SDS011;37372;52.294;5.152;2023-07-31T04:59:58;35.08;;;9.50;;
51288;SDS011;37372;52.294;5.152;2023-07-31T05:02:24;22.45;;;7.85;;
51288;SDS011;37372;52.294;5.152;2023-07-31T05:04:58;28.42;;;8.75;;
51288;SDS011;37372;52.294;5.152;2023-07-31T05:07:27;24.27;;;9.02;;
51288;SDS011;37372;52.294;5.152;2023-07-31T05:10:35;22.08;;;8.00;;
51288;SDS011;37372;52.294;5.152;2023-07-31T05:15:26;16.02;;;6.50;;
51288;SDS011;37372;52.294;5.152;2023-07-31T05:20:42;14.50;;;6.43;;
51288;SDS011;37372;52.294;5.152;2023-07-31T05:23:08;15.43;;;5.88;;
51288;SDS011;37372;52.294;5.152;2023-07-31T05:25:36;14.00;;;5.22;;
51288;SDS011;37372;52.294;5.152;2023-07-31T05:28:02;17.25;;;5.90;;
51288;SDS011;37372;52.294;5.152;2023-07-31T05:30:29;17.13;;;5.85;;
51288;SDS011;37372;52.294;5.152;2023-07-31T05:32:55;13.35;;;5.68;;
51288;SDS011;37372;52.294;5.152;2023-07-31T05:35:20;14.90;;;5.85;;
51288;SDS011;37372;52.294;5.152;2023-07-31T05:37:45;14.88;;;5.85;;
51288;SDS011;37372;52.294;5.152;2023-07-31T05:40:15;15.23;;;5.75;;
51288;SDS011;37372;52.294;5.152;2023-07-31T05:42:40;11.75;;;6.15;;
51288;SDS011;37372;52.294;5.152;2023-07-31T05:45:06;11.18;;;5.10;;
51288;SDS011;37372;52.294;5.152;2023-07-31T05:50:17;13.98;;;5.50;;
51288;SDS011;37372;52.294;5.152;2023-07-31T05:52:43;14.68;;;4.85;;
51288;SDS011;37372;52.294;5.152;2023-07-31T05:58:08;9.80;;;3.88;;
51288;SDS011;37372;52.294;5.152;2023-07-31T06:00:34;8.57;;;4.35;;
51288;SDS011;37372;52.294;5.152;2023-07-31T06:02:59;10.32;;;5.00;;
51288;SDS011;37372;52.294;5.152;2023-07-31T06:05:25;11.00;;;3.85;;
51288;SDS011;37372;52.294;5.152;2023-07-31T06:07:51;10.00;;;4.38;;
51288;SDS011;37372;52.294;5.152;2023-07-31T06:10:16;14.20;;;5.03;;
51288;SDS011;37372;52.294;5.152;2023-07-31T06:12:42;9.50;;;4.70;;
51288;SDS011;37372;52.294;5.152;2023-07-31T06:15:10;15.13;;;5.47;;
51288;SDS011;37372;52.294;5.152;2023-07-31T06:17:51;12.75;;;4.57;;
51288;SDS011;37372;52.294;5.152;2023-07-31T06:20:17;14.10;;;4.45;;
51288;SDS011;37372;52.294;5.152;2023-07-31T06:22:45;12.10;;;4.63;;
51288;SDS011;37372;52.294;5.152;2023-07-31T06:25:11;9.98;;;4.57;;
51288;SDS011;37372;52.294;5.152;2023-07-31T06:27:47;10.07;;;4.65;;
51288;SDS011;37372;52.294;5.152;2023-07-31T06:30:19;15.35;;;5.93;;
51288;SDS011;37372;52.294;5.152;2023-07-31T06:32:44;6.35;;;3.45;;
51288;SDS011;37372;52.294;5.152;2023-07-31T06:35:19;12.38;;;4.55;;
51288;SDS011;37372;52.294;5.152;2023-07-31T06:37:45;9.57;;;3.60;;
51288;SDS011;37372;52.294;5.152;2023-07-31T06:40:17;7.90;;;3.67;;
51288;SDS011;37372;52.294;5.152;2023-07-31T06:42:42;9.18;;;3.42;;
51288;SDS011;37372;52.294;5.152;2023-07-31T06:45:08;8.73;;;3.38;;
51288;SDS011;37372;52.294;5.152;2023-07-31T06:47:44;8.90;;;4.00;;
51288;SDS011;37372;52.294;5.152;2023-07-31T06:50:32;7.65;;;3.85;;
51288;SDS011;37372;52.294;5.152;2023-07-31T06:53:00;6.75;;;3.63;;
51288;SDS011;37372;52.294;5.152;2023-07-31T06:55:29;12.82;;;3.92;;
51288;SDS011;37372;52.294;5.152;2023-07-31T06:57:54;7.70;;;2.85;;
51288;SDS011;37372;52.294;5.152;2023-07-31T07:00:37;7.30;;;2.70;;
51288;SDS011;37372;52.294;5.152;2023-07-31T07:03:06;8.07;;;3.17;;
51288;SDS011;37372;52.294;5.152;2023-07-31T07:05:31;6.70;;;3.22;;
51288;SDS011;37372;52.294;5.152;2023-07-31T07:07:57;4.72;;;2.85;;
51288;SDS011;37372;52.294;5.152;2023-07-31T07:10:22;4.45;;;2.30;;
51288;SDS011;37372;52.294;5.152;2023-07-31T07:12:48;8.45;;;2.70;;
51288;SDS011;37372;52.294;5.152;2023-07-31T07:18:01;7.45;;;2.80;;
51288;SDS011;37372;52.294;5.152;2023-07-31T07:20:36;7.28;;;2.60;;
51288;SDS011;37372;52.294;5.152;2023-07-31T07:23:02;5.57;;;2.78;;
51288;SDS011;37372;52.294;5.152;2023-07-31T07:25:27;4.72;;;2.33;;
51288;SDS011;37372;52.294;5.152;2023-07-31T07:27:56;7.18;;;3.00;;
51288;SDS011;37372;52.294;5.152;2023-07-31T07:30:30;6.22;;;2.85;;
51288;SDS011;37372;52.294;5.152;2023-07-31T07:35:21;5.47;;;2.78;;
51288;SDS011;37372;52.294;5.152;2023-07-31T07:37:48;5.47;;;2.40;;
51288;SDS011;37372;52.294;5.152;2023-07-31T07:40:29;5.47;;;3.03;;
51288;SDS011;37372;52.294;5.152;2023-07-31T07:42:58;5.60;;;3.42;;
51288;SDS011;37372;52.294;5.152;2023-07-31T07:45:28;11.25;;;2.70;;
51288;SDS011;37372;52.294;5.152;2023-07-31T07:47:56;5.05;;;2.20;;
51288;SDS011;37372;52.294;5.152;2023-07-31T07:50:31;4.00;;;2.30;;
51288;SDS011;37372;52.294;5.152;2023-07-31T07:52:57;4.00;;;1.88;;
51288;SDS011;37372;52.294;5.152;2023-07-31T07:55:22;2.55;;;1.83;;
51288;SDS011;37372;52.294;5.152;2023-07-31T07:57:47;4.28;;;2.28;;
51288;SDS011;37372;52.294;5.152;2023-07-31T08:00:15;3.60;;;1.58;;
51288;SDS011;37372;52.294;5.152;2023-07-31T08:02:42;7.25;;;2.53;;
51288;SDS011;37372;52.294;5.152;2023-07-31T08:05:08;2.75;;;1.50;;
51288;SDS011;37372;52.294;5.152;2023-07-31T08:07:37;3.42;;;1.75;;
51288;SDS011;37372;52.294;5.152;2023-07-31T08:10:10;2.55;;;1.23;;
51288;SDS011;37372;52.294;5.152;2023-07-31T08:12:35;3.70;;;1.20;;
51288;SDS011;37372;52.294;5.152;2023-07-31T08:15:01;2.05;;;1.02;;
51288;SDS011;37372;52.294;5.152;2023-07-31T08:18:00;2.25;;;1.10;;
51288;SDS011;37372;52.294;5.152;2023-07-31T08:20:29;3.97;;;1.35;;
51288;SDS011;37372;52.294;5.152;2023-07-31T08:22:56;2.03;;;1.25;;
51288;SDS011;37372;52.294;5.152;2023-07-31T08:25:21;2.15;;;1.05;;
51288;SDS011;37372;52.294;5.152;2023-07-31T08:27:53;2.38;;;1.10;;
51288;SDS011;37372;52.294;5.152;2023-07-31T08:30:19;1.65;;;1.23;;
51288;SDS011;37372;52.294;5.152;2023-07-31T08:32:44;1.90;;;1.10;;
51288;SDS011;37372;52.294;5.152;2023-07-31T08:35:19;2.75;;;1.65;;
51288;SDS011;37372;52.294;5.152;2023-07-31T08:37:49;4.20;;;1.17;;
51288;SDS011;37372;52.294;5.152;2023-07-31T08:40:14;1.25;;;0.98;;
51288;SDS011;37372;52.294;5.152;2023-07-31T08:42:43;4.90;;;1.50;;
51288;SDS011;37372;52.294;5.152;2023-07-31T08:45:23;4.00;;;1.85;;
51288;SDS011;37372;52.294;5.152;2023-07-31T08:47:50;4.53;;;1.70;;
51288;SDS011;37372;52.294;5.152;2023-07-31T08:50:18;2.35;;;1.23;;
51288;SDS011;37372;52.294;5.152;2023-07-31T08:52:46;2.35;;;1.30;;
51288;SDS011;37372;52.294;5.152;2023-07-31T08:55:14;2.08;;;1.40;;
51288;SDS011;37372;52.294;5.152;2023-07-31T08:57:40;3.05;;;1.40;;
51288;SDS011;37372;52.294;5.152;2023-07-31T09:00:08;1.45;;;1.00;;
51288;SDS011;37372;52.294;5.152;2023-07-31T09:05:53;0.90;;;0.70;;
51288;SDS011;37372;52.294;5.152;2023-07-31T09:08:21;0.98;;;0.73;;
51288;SDS011;37372;52.294;5.152;2023-07-31T09:10:49;1.05;;;0.80;;
51288;SDS011;37372;52.294;5.152;2023-07-31T09:13:15;1.33;;;0.70;;
51288;SDS011;37372;52.294;5.152;2023-07-31T09:15:42;1.35;;;0.90;;
51288;SDS011;37372;52.294;5.152;2023-07-31T09:18:15;1.65;;;0.90;;
51288;SDS011;37372;52.294;5.152;2023-07-31T09:20:50;2.03;;;0.63;;
51288;SDS011;37372;52.294;5.152;2023-07-31T09:23:39;1.95;;;0.60;;
51288;SDS011;37372;52.294;5.152;2023-07-31T09:26:09;1.13;;;0.60;;
51288;SDS011;37372;52.294;5.152;2023-07-31T09:28:54;1.10;;;0.57;;
51288;SDS011;37372;52.294;5.152;2023-07-31T09:31:31;1.33;;;0.80;;
51288;SDS011;37372;52.294;5.152;2023-07-31T09:34:10;3.88;;;1.10;;
51288;SDS011;37372;52.294;5.152;2023-07-31T09:36:42;1.38;;;0.70;;
51288;SDS011;37372;52.294;5.152;2023-07-31T09:39:12;2.65;;;1.40;;
51288;SDS011;37372;52.294;5.152;2023-07-31T09:41:45;3.85;;;1.30;;
51288;SDS011;37372;52.294;5.152;2023-07-31T09:44:13;5.53;;;1.23;;
51288;SDS011;37372;52.294;5.152;2023-07-31T09:46:38;6.57;;;1.67;;
51288;SDS011;37372;52.294;5.152;2023-07-31T09:51:37;4.25;;;1.58;;
51288;SDS011;37372;52.294;5.152;2023-07-31T09:56:46;7.72;;;1.60;;
51288;SDS011;37372;52.294;5.152;2023-07-31T09:59:20;9.82;;;2.03;;
51288;SDS011;37372;52.294;5.152;2023-07-31T10:01:46;4.30;;;1.60;;
51288;SDS011;37372;52.294;5.152;2023-07-31T10:04:15;5.78;;;2.00;;
51288;SDS011;37372;52.294;5.152;2023-07-31T10:06:46;3.57;;;1.80;;
51288;SDS011;37372;52.294;5.152;2023-07-31T10:09:17;7.18;;;2.53;;
51288;SDS011;37372;52.294;5.152;2023-07-31T10:11:47;6.70;;;2.35;;
51288;SDS011;37372;52.294;5.152;2023-07-31T10:14:18;9.13;;;3.15;;
51288;SDS011;37372;52.294;5.152;2023-07-31T10:16:45;9.55;;;3.28;;
51288;SDS011;37372;52.294;5.152;2023-07-31T10:19:12;12.98;;;3.50;;
51288;SDS011;37372;52.294;5.152;2023-07-31T10:21:38;9.57;;;3.60;;
51288;SDS011;37372;52.294;5.152;2023-07-31T10:24:04;13.05;;;3.90;;
51288;SDS011;37372;52.294;5.152;2023-07-31T10:26:31;14.38;;;3.60;;
51288;SDS011;37372;52.294;5.152;2023-07-31T10:28:58;16.70;;;4.00;;
51288;SDS011;37372;52.294;5.152;2023-07-31T10:31:25;10.73;;;3.60;;
51288;SDS011;37372;52.294;5.152;2023-07-31T10:33:54;13.35;;;4.13;;
51288;SDS011;37372;52.294;5.152;2023-07-31T10:40:01;13.68;;;3.42;;
51288;SDS011;37372;52.294;5.152;2023-07-31T10:42:35;11.02;;;3.33;;
51288;SDS011;37372;52.294;5.152;2023-07-31T10:45:10;9.85;;;3.10;;
51288;SDS011;37372;52.294;5.152;2023-07-31T10:47:37;11.55;;;3.90;;
51288;SDS011;37372;52.294;5.152;2023-07-31T10:50:13;9.02;;;3.72;;
51288;SDS011;37372;52.294;5.152;2023-07-31T10:53:10;15.55;;;3.40;;
51288;SDS011;37372;52.294;5.152;2023-07-31T10:55:51;15.20;;;4.03;;
51288;SDS011;37372;52.294;5.152;2023-07-31T10:58:18;9.70;;;2.92;;
51288;SDS011;37372;52.294;5.152;2023-07-31T11:01:01;10.10;;;3.15;;
51288;SDS011;37372;52.294;5.152;2023-07-31T11:03:45;8.20;;;3.28;;
51288;SDS011;37372;52.294;5.152;2023-07-31T11:06:42;8.10;;;2.88;;
51288;SDS011;37372;52.294;5.152;2023-07-31T11:09:28;8.00;;;2.95;;
51288;SDS011;37372;52.294;5.152;2023-07-31T11:11:55;10.43;;;2.92;;
51288;SDS011;37372;52.294;5.152;2023-07-31T11:14:24;8.95;;;3.53;;
51288;SDS011;37372;52.294;5.152;2023-07-31T11:17:17;10.52;;;2.35;;
51288;SDS011;37372;52.294;5.152;2023-07-31T11:19:45;9.60;;;2.47;;
51288;SDS011;37372;52.294;5.152;2023-07-31T11:22:13;8.77;;;3.00;;
51288;SDS011;37372;52.294;5.152;2023-07-31T11:24:43;9.10;;;2.75;;
51288;SDS011;37372;52.294;5.152;2023-07-31T11:27:09;10.60;;;2.67;;
51288;SDS011;37372;52.294;5.152;2023-07-31T11:30:20;9.15;;;2.90;;
51288;SDS011;37372;52.294;5.152;2023-07-31T11:32:27;8.32;;;3.42;;
51288;SDS011;37372;52.294;5.152;2023-07-31T11:34:52;10.25;;;2.90;;
51288;SDS011;37372;52.294;5.152;2023-07-31T11:37:25;9.35;;;2.72;;
51288;SDS011;37372;52.294;5.152;2023-07-31T11:40:07;5.43;;;2.47;;
51288;SDS011;37372;52.294;5.152;2023-07-31T11:42:35;8.57;;;3.25;;
51288;SDS011;37372;52.294;5.152;2023-07-31T11:45:08;11.18;;;3.08;;
51288;SDS011;37372;52.294;5.152;2023-07-31T11:47:35;11.70;;;2.65;;
51288;SDS011;37372;52.294;5.152;2023-07-31T11:50:03;12.95;;;3.53;;
51288;SDS011;37372;52.294;5.152;2023-07-31T11:52:32;6.93;;;2.90;;
51288;SDS011;37372;52.294;5.152;2023-07-31T11:55:03;7.38;;;2.90;;
51288;SDS011;37372;52.294;5.152;2023-07-31T11:57:35;11.25;;;3.33;;
51288;SDS011;37372;52.294;5.152;2023-07-31T12:00:03;9.70;;;2.60;;
51288;SDS011;37372;52.294;5.152;2023-07-31T12:02:32;12.23;;;2.95;;
51288;SDS011;37372;52.294;5.152;2023-07-31T12:05:05;13.27;;;3.03;;
51288;SDS011;37372;52.294;5.152;2023-07-31T12:10:23;12.05;;;2.50;;
51288;SDS011;37372;52.294;5.152;2023-07-31T12:15:39;12.00;;;3.05;;
51288;SDS011;37372;52.294;5.152;2023-07-31T12:18:29;8.95;;;2.42;;
51288;SDS011;37372;52.294;5.152;2023-07-31T12:21:01;10.75;;;2.80;;
51288;SDS011;37372;52.294;5.152;2023-07-31T12:23:33;13.27;;;2.80;;
51288;SDS011;37372;52.294;5.152;2023-07-31T12:29:01;15.00;;;3.25;;
51288;SDS011;37372;52.294;5.152;2023-07-31T12:31:29;11.25;;;2.60;;
51288;SDS011;37372;52.294;5.152;2023-07-31T12:33:55;12.52;;;2.47;;
51288;SDS011;37372;52.294;5.152;2023-07-31T12:36:44;8.60;;;2.00;;
51288;SDS011;37372;52.294;5.152;2023-07-31T12:39:21;7.45;;;2.03;;
51288;SDS011;37372;52.294;5.152;2023-07-31T12:42:05;7.20;;;2.90;;
51288;SDS011;37372;52.294;5.152;2023-07-31T12:44:33;7.80;;;2.28;;
51288;SDS011;37372;52.294;5.152;2023-07-31T12:47:01;10.90;;;1.98;;
51288;SDS011;37372;52.294;5.152;2023-07-31T12:49:32;8.50;;;2.47;;
51288;SDS011;37372;52.294;5.152;2023-07-31T12:51:59;8.25;;;2.65;;
51288;SDS011;37372;52.294;5.152;2023-07-31T12:54:28;8.45;;;2.88;;
51288;SDS011;37372;52.294;5.152;2023-07-31T12:56:53;8.80;;;1.73;;
51288;SDS011;37372;52.294;5.152;2023-07-31T12:59:19;7.30;;;1.88;;
51288;SDS011;37372;52.294;5.152;2023-07-31T13:01:45;9.60;;;2.05;;
51288;SDS011;37372;52.294;5.152;2023-07-31T13:04:11;11.50;;;2.55;;
51288;SDS011;37372;52.294;5.152;2023-07-31T13:06:42;6.28;;;2.30;;
51288;SDS011;37372;52.294;5.152;2023-07-31T13:09:08;10.57;;;2.75;;
51288;SDS011;37372;52.294;5.152;2023-07-31T13:11:35;6.57;;;1.77;;
51288;SDS011;37372;52.294;5.152;2023-07-31T13:14:00;5.22;;;1.50;;
51288;SDS011;37372;52.294;5.152;2023-07-31T13:19:11;7.68;;;1.73;;
51288;SDS011;37372;52.294;5.152;2023-07-31T13:21:56;7.60;;;2.88;;
51288;SDS011;37372;52.294;5.152;2023-07-31T13:24:22;7.55;;;2.45;;
51288;SDS011;37372;52.294;5.152;2023-07-31T13:26:48;6.30;;;2.05;;
51288;SDS011;37372;52.294;5.152;2023-07-31T13:29:13;8.60;;;1.92;;
51288;SDS011;37372;52.294;5.152;2023-07-31T13:31:38;7.78;;;2.40;;
51288;SDS011;37372;52.294;5.152;2023-07-31T13:34:04;6.05;;;1.85;;
51288;SDS011;37372;52.294;5.152;2023-07-31T13:39:33;6.78;;;2.00;;
51288;SDS011;37372;52.294;5.152;2023-07-31T13:42:01;7.05;;;2.80;;
51288;SDS011;37372;52.294;5.152;2023-07-31T13:44:41;9.27;;;2.45;;
51288;SDS011;37372;52.294;5.152;2023-07-31T13:47:10;5.95;;;2.38;;
51288;SDS011;37372;52.294;5.152;2023-07-31T13:49:36;10.07;;;2.22;;
51288;SDS011;37372;52.294;5.152;2023-07-31T13:52:11;6.35;;;2.00;;
51288;SDS011;37372;52.294;5.152;2023-07-31T13:54:41;8.45;;;2.13;;
51288;SDS011;37372;52.294;5.152;2023-07-31T13:57:07;4.03;;;1.50;;
51288;SDS011;37372;52.294;5.152;2023-07-31T13:59:33;5.72;;;2.47;;
51288;SDS011;37372;52.294;5.152;2023-07-31T14:02:02;3.70;;;1.00;;
51288;SDS011;37372;52.294;5.152;2023-07-31T14:04:28;3.53;;;1.08;;
51288;SDS011;37372;52.294;5.152;2023-07-31T14:06:53;3.03;;;0.88;;
51288;SDS011;37372;52.294;5.152;2023-07-31T14:09:21;4.38;;;1.42;;
51288;SDS011;37372;52.294;5.152;2023-07-31T14:11:47;3.95;;;1.23;;
51288;SDS011;37372;52.294;5.152;2023-07-31T14:14:13;4.43;;;1.52;;
51288;SDS011;37372;52.294;5.152;2023-07-31T14:16:50;2.85;;;1.38;;
51288;SDS011;37372;52.294;5.152;2023-07-31T14:19:15;3.92;;;1.70;;
51288;SDS011;37372;52.294;5.152;2023-07-31T14:21:59;3.28;;;1.60;;
51288;SDS011;37372;52.294;5.152;2023-07-31T14:24:37;3.42;;;1.48;;
51288;SDS011;37372;52.294;5.152;2023-07-31T14:27:35;4.40;;;1.45;;
51288;SDS011;37372;52.294;5.152;2023-07-31T14:30:01;2.97;;;1.20;;
51288;SDS011;37372;52.294;5.152;2023-07-31T14:32:27;3.40;;;1.40;;
51288;SDS011;37372;52.294;5.152;2023-07-31T14:34:53;5.93;;;1.27;;
51288;SDS011;37372;52.294;5.152;2023-07-31T14:37:19;3.33;;;1.35;;
51288;SDS011;37372;52.294;5.152;2023-07-31T14:39:45;3.50;;;1.20;;
51288;SDS011;37372;52.294;5.152;2023-07-31T14:42:17;4.43;;;1.30;;
51288;SDS011;37372;52.294;5.152;2023-07-31T14:44:53;4.63;;;1.40;;
51288;SDS011;37372;52.294;5.152;2023-07-31T14:47:20;2.45;;;1.25;;
51288;SDS011;37372;52.294;5.152;2023-07-31T14:50:06;6.22;;;1.33;;
51288;SDS011;37372;52.294;5.152;2023-07-31T14:52:38;5.40;;;0.98;;
51288;SDS011;37372;52.294;5.152;2023-07-31T14:55:05;2.83;;;0.90;;
51288;SDS011;37372;52.294;5.152;2023-07-31T14:57:34;3.25;;;0.93;;
51288;SDS011;37372;52.294;5.152;2023-07-31T15:00:19;4.07;;;1.70;;
51288;SDS011;37372;52.294;5.152;2023-07-31T15:02:46;3.55;;;0.80;;
51288;SDS011;37372;52.294;5.152;2023-07-31T15:05:11;2.92;;;0.80;;
51288;SDS011;37372;52.294;5.152;2023-07-31T15:07:37;2.25;;;0.90;;
51288;SDS011;37372;52.294;5.152;2023-07-31T15:10:02;2.55;;;1.27;;
51288;SDS011;37372;52.294;5.152;2023-07-31T15:12:28;3.90;;;0.98;;
51288;SDS011;37372;52.294;5.152;2023-07-31T15:14:53;3.75;;;1.45;;
51288;SDS011;37372;52.294;5.152;2023-07-31T15:17:25;2.50;;;1.00;;
51288;SDS011;37372;52.294;5.152;2023-07-31T15:19:51;1.48;;;0.70;;
51288;SDS011;37372;52.294;5.152;2023-07-31T15:22:20;2.38;;;0.93;;
51288;SDS011;37372;52.294;5.152;2023-07-31T15:24:48;2.60;;;0.70;;
51288;SDS011;37372;52.294;5.152;2023-07-31T15:27:17;2.83;;;1.00;;
51288;SDS011;37372;52.294;5.152;2023-07-31T15:29:49;2.40;;;1.02;;
51288;SDS011;37372;52.294;5.152;2023-07-31T15:32:16;1.33;;;0.80;;
51288;SDS011;37372;52.294;5.152;2023-07-31T15:34:43;2.38;;;0.70;;
51288;SDS011;37372;52.294;5.152;2023-07-31T15:37:08;1.88;;;0.98;;
51288;SDS011;37372;52.294;5.152;2023-07-31T15:39:38;2.00;;;1.20;;
51288;SDS011;37372;52.294;5.152;2023-07-31T15:42:06;2.20;;;1.10;;
51288;SDS011;37372;52.294;5.152;2023-07-31T15:44:34;2.80;;;1.17;;
51288;SDS011;37372;52.294;5.152;2023-07-31T15:47:10;1.27;;;0.98;;
51288;SDS011;37372;52.294;5.152;2023-07-31T15:49:35;4.38;;;1.17;;
51288;SDS011;37372;52.294;5.152;2023-07-31T15:52:05;3.20;;;1.20;;
51288;SDS011;37372;52.294;5.152;2023-07-31T15:54:35;3.85;;;0.88;;